sensor_id;sensor_type;location;lat;lon;timestamp;pressure;altitude;pressure_sealevel;temperature;humidity
75629;BME280;64213;46.452;16.994;2023-06-24T00:02:18;100125.16;;;16.82;100.00
75629;BME280;64213;46.452;16.994;2023-06-24T00:05:21;100114.59;;;16.81;100.00
75629;BME280;64213;46.452;16.994;2023-06-24T00:08:23;100112.06;;;16.79;100.00
75629;BME280;64213;46.452;16.994;2023-06-24T00:11:29;100114.59;;;16.81;100.00
75629;BME280;64213;46.452;16.994;2023-06-24T00:14:32;100121.50;;;16.83;100.00
75629;BME280;64213;46.452;16.994;2023-06-24T00:17:34;100132.47;;;16.90;100.00
75629;BME280;64213;46.452;16.994;2023-06-24T00:20:36;100132.09;;;16.94;100.00
75629;BME280;64213;46.452;16.994;2023-06-24T00:23:38;100122.81;;;16.99;100.00
75629;BME280;64213;46.452;16.994;2023-06-24T00:26:41;100120.69;;;17.02;100.00
75629;BME280;64213;46.452;16.994;2023-06-24T00:29:43;100126.19;;;17.01;100.00
75629;BME280;64213;46.452;16.994;2023-06-24T00:32:45;100120.97;;;16.99;100.00
75629;BME280;64213;46.452;16.994;2023-06-24T00:35:47;100120.84;;;17.01;100.00
75629;BME280;64213;46.452;16.994;2023-06-24T00:38:49;100129.81;;;17.00;100.00
75629;BME280;64213;46.452;16.994;2023-06-24T00:41:52;100135.31;;;16.98;100.00
75629;BME280;64213;46.452;16.994;2023-06-24T00:44:54;100139.69;;;16.99;100.00
75629;BME280;64213;46.452;16.994;2023-06-24T00:47:58;100129.00;;;16.99;100.00
75629;BME280;64213;46.452;16.994;2023-06-24T00:51:00;100119.41;;;16.96;100.00
75629;BME280;64213;46.452;16.994;2023-06-24T00:54:03;100123.06;;;16.95;100.00
75629;BME280;64213;46.452;16.994;2023-06-24T00:57:06;100124.47;;;16.90;100.00
75629;BME280;64213;46.452;16.994;2023-06-24T01:00:09;100140.50;;;16.90;100.00
75629;BME280;64213;46.452;16.994;2023-06-24T01:03:16;100150.62;;;16.86;100.00
75629;BME280;64213;46.452;16.994;2023-06-24T01:06:18;100159.19;;;16.90;100.00
75629;BME280;64213;46.452;16.994;2023-06-24T01:09:20;100157.38;;;16.90;100.00
75629;BME280;64213;46.452;16.994;2023-06-24T01:12:23;100166.37;;;16.89;100.00
75629;BME280;64213;46.452;16.994;2023-06-24T01:15:25;100164.69;;;16.88;100.00
75629;BME280;64213;46.452;16.994;2023-06-24T01:18:57;100163.69;;;16.89;99.83
75629;BME280;64213;46.452;16.994;2023-06-24T01:32:19;100141.47;;;16.79;100.00
75629;BME280;64213;46.452;16.994;2023-06-24T01:35:28;100131.72;;;16.78;100.00
75629;BME280;64213;46.452;16.994;2023-06-24T01:38:46;100142.69;;;16.75;100.00
75629;BME280;64213;46.452;16.994;2023-06-24T01:42:00;100121.84;;;16.69;100.00
75629;BME280;64213;46.452;16.994;2023-06-24T01:45:12;100120.16;;;16.68;100.00
75629;BME280;64213;46.452;16.994;2023-06-24T01:48:18;100108.31;;;16.61;100.00
75629;BME280;64213;46.452;16.994;2023-06-24T01:51:22;100099.00;;;16.55;100.00
75629;BME280;64213;46.452;16.994;2023-06-24T01:54:26;100103.50;;;16.55;100.00
75629;BME280;64213;46.452;16.994;2023-06-24T01:57:33;100114.63;;;16.50;100.00
75629;BME280;64213;46.452;16.994;2023-06-24T02:00:37;100123.59;;;16.49;100.00
75629;BME280;64213;46.452;16.994;2023-06-24T02:03:41;100113.31;;;16.44;100.00
75629;BME280;64213;46.452;16.994;2023-06-24T02:06:44;100114.31;;;16.43;100.00
75629;BME280;64213;46.452;16.994;2023-06-24T02:09:47;100110.91;;;16.41;100.00
75629;BME280;64213;46.452;16.994;2023-06-24T02:12:51;100132.41;;;16.40;100.00
75629;BME280;64213;46.452;16.994;2023-06-24T02:15:55;100146.16;;;16.35;100.00
75629;BME280;64213;46.452;16.994;2023-06-24T02:18:58;100161.03;;;16.28;100.00
75629;BME280;64213;46.452;16.994;2023-06-24T02:22:01;100153.97;;;16.27;100.00
75629;BME280;64213;46.452;16.994;2023-06-24T02:25:05;100150.59;;;16.25;100.00
75629;BME280;64213;46.452;16.994;2023-06-24T02:28:08;100161.41;;;16.23;100.00
75629;BME280;64213;46.452;16.994;2023-06-24T02:31:10;100177.34;;;16.14;100.00
75629;BME280;64213;46.452;16.994;2023-06-24T02:34:15;100184.78;;;16.10;100.00
75629;BME280;64213;46.452;16.994;2023-06-24T02:37:17;100189.53;;;16.07;100.00
75629;BME280;64213;46.452;16.994;2023-06-24T02:40:20;100193.81;;;15.98;100.00
75629;BME280;64213;46.452;16.994;2023-06-24T02:43:22;100191.41;;;15.95;100.00
75629;BME280;64213;46.452;16.994;2023-06-24T02:46:25;100186.31;;;15.92;100.00
75629;BME280;64213;46.452;16.994;2023-06-24T02:49:31;100197.88;;;15.92;100.00
75629;BME280;64213;46.452;16.994;2023-06-24T02:52:34;100211.91;;;15.94;100.00
75629;BME280;64213;46.452;16.994;2023-06-24T02:55:40;100221.16;;;15.90;100.00
75629;BME280;64213;46.452;16.994;2023-06-24T02:58:44;100213.72;;;15.94;100.00
75629;BME280;64213;46.452;16.994;2023-06-24T03:01:47;100207.75;;;16.01;100.00
75629;BME280;64213;46.452;16.994;2023-06-24T03:04:50;100199.22;;;16.08;100.00
75629;BME280;64213;46.452;16.994;2023-06-24T03:07:54;100204.03;;;16.14;100.00
75629;BME280;64213;46.452;16.994;2023-06-24T03:10:57;100203.16;;;16.24;100.00
75629;BME280;64213;46.452;16.994;2023-06-24T03:14:00;100205.41;;;16.29;99.07
75629;BME280;64213;46.452;16.994;2023-06-24T03:17:03;100238.22;;;16.41;100.00
75629;BME280;64213;46.452;16.994;2023-06-24T03:20:06;100249.75;;;16.41;100.00
75629;BME280;64213;46.452;16.994;2023-06-24T03:23:09;100249.44;;;16.35;100.00
75629;BME280;64213;46.452;16.994;2023-06-24T03:26:11;100251.00;;;16.37;100.00
75629;BME280;64213;46.452;16.994;2023-06-24T03:29:13;100257.78;;;16.41;100.00
75629;BME280;64213;46.452;16.994;2023-06-24T03:32:15;100271.50;;;16.37;100.00
75629;BME280;64213;46.452;16.994;2023-06-24T03:35:18;100283.56;;;16.31;100.00
75629;BME280;64213;46.452;16.994;2023-06-24T03:38:32;100287.84;;;16.22;100.00
75629;BME280;64213;46.452;16.994;2023-06-24T03:41:35;100275.00;;;16.16;100.00
75629;BME280;64213;46.452;16.994;2023-06-24T03:44:37;100275.50;;;16.10;100.00
75629;BME280;64213;46.452;16.994;2023-06-24T03:47:39;100271.16;;;16.09;100.00
75629;BME280;64213;46.452;16.994;2023-06-24T03:50:42;100252.34;;;16.11;100.00
75629;BME280;64213;46.452;16.994;2023-06-24T03:53:44;100245.31;;;16.10;100.00
75629;BME280;64213;46.452;16.994;2023-06-24T03:56:46;100254.06;;;16.12;100.00
75629;BME280;64213;46.452;16.994;2023-06-24T03:59:48;100247.47;;;16.16;100.00
75629;BME280;64213;46.452;16.994;2023-06-24T04:02:50;100237.97;;;16.23;100.00
75629;BME280;64213;46.452;16.994;2023-06-24T04:05:57;100236.72;;;16.27;100.00
75629;BME280;64213;46.452;16.994;2023-06-24T04:09:00;100236.97;;;16.24;100.00
75629;BME280;64213;46.452;16.994;2023-06-24T04:12:03;100249.47;;;16.23;100.00
75629;BME280;64213;46.452;16.994;2023-06-24T04:15:06;100251.31;;;16.23;100.00
75629;BME280;64213;46.452;16.994;2023-06-24T04:18:09;100238.47;;;16.17;100.00
75629;BME280;64213;46.452;16.994;2023-06-24T04:21:11;100246.97;;;16.22;100.00
75629;BME280;64213;46.452;16.994;2023-06-24T04:24:13;100248.38;;;16.26;100.00
75629;BME280;64213;46.452;16.994;2023-06-24T04:27:16;100258.88;;;16.39;100.00
75629;BME280;64213;46.452;16.994;2023-06-24T04:30:18;100266.81;;;16.50;99.83
75629;BME280;64213;46.452;16.994;2023-06-24T04:33:20;100271.50;;;16.58;99.67
75629;BME280;64213;46.452;16.994;2023-06-24T04:36:23;100267.59;;;16.62;98.81
75629;BME280;64213;46.452;16.994;2023-06-24T04:39:25;100267.19;;;16.66;98.30
75629;BME280;64213;46.452;16.994;2023-06-24T04:42:27;100272.47;;;16.78;97.80
75629;BME280;64213;46.452;16.994;2023-06-24T04:45:30;100276.34;;;16.85;97.32
75629;BME280;64213;46.452;16.994;2023-06-24T04:48:32;100276.25;;;16.96;96.84
75629;BME280;64213;46.452;16.994;2023-06-24T04:51:35;100280.63;;;17.07;96.31
75629;BME280;64213;46.452;16.994;2023-06-24T04:54:38;100280.69;;;17.16;96.18
75629;BME280;64213;46.452;16.994;2023-06-24T04:57:40;100281.28;;;17.20;95.61
75629;BME280;64213;46.452;16.994;2023-06-24T05:00:44;100281.44;;;17.28;95.58
75629;BME280;64213;46.452;16.994;2023-06-24T05:03:47;100287.53;;;17.40;95.14
75629;BME280;64213;46.452;16.994;2023-06-24T05:06:49;100286.41;;;17.42;94.90
75629;BME280;64213;46.452;16.994;2023-06-24T05:09:51;100284.03;;;17.49;94.45
75629;BME280;64213;46.452;16.994;2023-06-24T05:12:54;100282.22;;;17.59;93.77
75629;BME280;64213;46.452;16.994;2023-06-24T05:15:56;100290.28;;;17.69;92.51
75629;BME280;64213;46.452;16.994;2023-06-24T05:18:58;100282.03;;;17.82;91.62
75629;BME280;64213;46.452;16.994;2023-06-24T05:22:00;100284.56;;;17.93;89.89
75629;BME280;64213;46.452;16.994;2023-06-24T05:25:03;100279.22;;;18.03;88.21
75629;BME280;64213;46.452;16.994;2023-06-24T05:28:05;100283.88;;;18.20;87.30
75629;BME280;64213;46.452;16.994;2023-06-24T05:31:07;100285.97;;;18.36;87.12
75629;BME280;64213;46.452;16.994;2023-06-24T05:34:09;100284.56;;;18.51;86.59
75629;BME280;64213;46.452;16.994;2023-06-24T05:37:12;100291.56;;;18.62;84.75
75629;BME280;64213;46.452;16.994;2023-06-24T05:40:14;100298.63;;;18.73;83.78
75629;BME280;64213;46.452;16.994;2023-06-24T05:43:16;100294.78;;;18.85;82.99
75629;BME280;64213;46.452;16.994;2023-06-24T05:46:19;100292.91;;;19.05;80.77
75629;BME280;64213;46.452;16.994;2023-06-24T05:49:21;100306.19;;;19.34;79.53
75629;BME280;64213;46.452;16.994;2023-06-24T05:52:23;100301.50;;;19.36;78.61
75629;BME280;64213;46.452;16.994;2023-06-24T05:55:25;100300.19;;;19.50;77.86
75629;BME280;64213;46.452;16.994;2023-06-24T05:58:27;100295.41;;;19.71;77.52
75629;BME280;64213;46.452;16.994;2023-06-24T06:01:30;100300.03;;;19.79;77.32
75629;BME280;64213;46.452;16.994;2023-06-24T06:04:32;100296.53;;;19.79;76.95
75629;BME280;64213;46.452;16.994;2023-06-24T06:07:34;100303.97;;;19.85;77.26
75629;BME280;64213;46.452;16.994;2023-06-24T06:10:36;100297.38;;;19.97;77.58
75629;BME280;64213;46.452;16.994;2023-06-24T06:13:39;100293.91;;;19.87;76.19
75629;BME280;64213;46.452;16.994;2023-06-24T06:16:41;100296.53;;;19.79;76.08
75629;BME280;64213;46.452;16.994;2023-06-24T06:19:43;100304.72;;;19.77;76.37
75629;BME280;64213;46.452;16.994;2023-06-24T06:22:51;100312.38;;;19.72;76.30
75629;BME280;64213;46.452;16.994;2023-06-24T06:25:53;100301.37;;;19.65;76.72
75629;BME280;64213;46.452;16.994;2023-06-24T06:28:55;100301.34;;;19.75;76.70
75629;BME280;64213;46.452;16.994;2023-06-24T06:31:57;100305.78;;;19.66;77.01
75629;BME280;64213;46.452;16.994;2023-06-24T06:34:59;100307.38;;;19.49;76.46
75629;BME280;64213;46.452;16.994;2023-06-24T06:38:02;100299.72;;;19.64;76.49
75629;BME280;64213;46.452;16.994;2023-06-24T06:41:04;100295.81;;;19.49;76.07
75629;BME280;64213;46.452;16.994;2023-06-24T06:44:06;100301.34;;;19.47;76.87
75629;BME280;64213;46.452;16.994;2023-06-24T06:47:10;100317.19;;;19.41;76.67
75629;BME280;64213;46.452;16.994;2023-06-24T06:50:12;100313.09;;;19.37;76.84
75629;BME280;64213;46.452;16.994;2023-06-24T06:53:14;100312.84;;;19.30;77.32
75629;BME280;64213;46.452;16.994;2023-06-24T06:56:23;100324.47;;;19.21;77.70
75629;BME280;64213;46.452;16.994;2023-06-24T06:59:26;100309.66;;;19.17;79.22
75629;BME280;64213;46.452;16.994;2023-06-24T07:02:28;100326.69;;;19.25;77.40
75629;BME280;64213;46.452;16.994;2023-06-24T07:05:30;100323.47;;;19.22;77.15
75629;BME280;64213;46.452;16.994;2023-06-24T07:08:33;100318.56;;;19.08;77.64
75629;BME280;64213;46.452;16.994;2023-06-24T07:11:35;100319.13;;;19.11;77.66
75629;BME280;64213;46.452;16.994;2023-06-24T07:14:37;100315.59;;;19.11;77.76
75629;BME280;64213;46.452;16.994;2023-06-24T07:17:40;100314.72;;;19.20;77.92
75629;BME280;64213;46.452;16.994;2023-06-24T07:20:43;100309.31;;;19.29;78.15
75629;BME280;64213;46.452;16.994;2023-06-24T07:23:45;100310.84;;;19.32;78.51
75629;BME280;64213;46.452;16.994;2023-06-24T07:26:47;100315.25;;;19.23;78.93
75629;BME280;64213;46.452;16.994;2023-06-24T07:29:49;100304.69;;;19.22;79.47
75629;BME280;64213;46.452;16.994;2023-06-24T07:32:52;100304.53;;;19.23;79.79
75629;BME280;64213;46.452;16.994;2023-06-24T07:35:54;100308.34;;;19.31;79.57
75629;BME280;64213;46.452;16.994;2023-06-24T07:38:56;100311.34;;;19.45;79.31
75629;BME280;64213;46.452;16.994;2023-06-24T07:41:58;100316.44;;;19.48;79.44
75629;BME280;64213;46.452;16.994;2023-06-24T07:45:00;100330.59;;;19.41;79.37
75629;BME280;64213;46.452;16.994;2023-06-24T07:48:02;100335.75;;;19.52;79.19
75629;BME280;64213;46.452;16.994;2023-06-24T07:51:06;100344.06;;;19.59;78.98
75629;BME280;64213;46.452;16.994;2023-06-24T07:54:09;100355.41;;;19.43;79.56
75629;BME280;64213;46.452;16.994;2023-06-24T07:57:11;100348.31;;;19.51;79.46
75629;BME280;64213;46.452;16.994;2023-06-24T08:00:14;100335.63;;;19.54;79.60
75629;BME280;64213;46.452;16.994;2023-06-24T08:03:16;100340.94;;;19.63;79.54
75629;BME280;64213;46.452;16.994;2023-06-24T08:06:19;100334.53;;;19.74;78.83
75629;BME280;64213;46.452;16.994;2023-06-24T08:09:22;100337.47;;;19.81;78.17
75629;BME280;64213;46.452;16.994;2023-06-24T08:12:24;100337.47;;;19.81;77.71
75629;BME280;64213;46.452;16.994;2023-06-24T08:15:26;100334.50;;;20.02;77.15
75629;BME280;64213;46.452;16.994;2023-06-24T08:18:28;100343.13;;;20.05;77.02
75629;BME280;64213;46.452;16.994;2023-06-24T08:21:30;100340.66;;;20.12;76.17
75629;BME280;64213;46.452;16.994;2023-06-24T08:24:32;100342.75;;;20.36;75.84
75629;BME280;64213;46.452;16.994;2023-06-24T08:27:34;100349.75;;;20.64;75.14
75629;BME280;64213;46.452;16.994;2023-06-24T08:30:38;100346.28;;;20.54;74.61
75629;BME280;64213;46.452;16.994;2023-06-24T08:33:44;100346.50;;;20.61;74.39
75629;BME280;64213;46.452;16.994;2023-06-24T08:36:49;100352.44;;;21.17;73.37
75629;BME280;64213;46.452;16.994;2023-06-24T08:39:51;100350.47;;;22.03;71.13
75629;BME280;64213;46.452;16.994;2023-06-24T08:42:53;100354.41;;;22.17;70.13
75629;BME280;64213;46.452;16.994;2023-06-24T08:45:56;100350.88;;;22.33;69.58
75629;BME280;64213;46.452;16.994;2023-06-24T08:49:23;100346.19;;;22.60;67.72
75629;BME280;64213;46.452;16.994;2023-06-24T08:52:32;100347.22;;;23.95;64.25
75629;BME280;64213;46.452;16.994;2023-06-24T08:55:39;100342.06;;;24.08;62.38
75629;BME280;64213;46.452;16.994;2023-06-24T08:58:42;100354.28;;;23.96;63.09
75629;BME280;64213;46.452;16.994;2023-06-24T09:01:46;100359.75;;;23.32;64.76
75629;BME280;64213;46.452;16.994;2023-06-24T09:04:50;100351.41;;;23.02;65.62
75629;BME280;64213;46.452;16.994;2023-06-24T09:07:53;100346.19;;;22.60;67.19
75629;BME280;64213;46.452;16.994;2023-06-24T09:10:55;100335.91;;;22.31;67.74
75629;BME280;64213;46.452;16.994;2023-06-24T09:14:00;100331.13;;;22.08;68.76
75629;BME280;64213;46.452;16.994;2023-06-24T09:17:03;100330.69;;;22.29;68.67
75629;BME280;64213;46.452;16.994;2023-06-24T09:20:08;100327.81;;;22.39;68.15
75629;BME280;64213;46.452;16.994;2023-06-24T09:23:12;100315.66;;;22.84;66.89
75629;BME280;64213;46.452;16.994;2023-06-24T09:26:14;100318.22;;;23.49;63.79
75629;BME280;64213;46.452;16.994;2023-06-24T09:29:17;100315.25;;;23.98;63.57
75629;BME280;64213;46.452;16.994;2023-06-24T09:32:19;100302.91;;;24.04;62.97
75629;BME280;64213;46.452;16.994;2023-06-24T09:35:23;100307.69;;;24.63;61.57
75629;BME280;64213;46.452;16.994;2023-06-24T09:38:34;100312.84;;;25.91;57.77
75629;BME280;64213;46.452;16.994;2023-06-24T09:41:41;100304.56;;;26.85;54.61
75629;BME280;64213;46.452;16.994;2023-06-24T09:44:52;100300.94;;;27.41;53.03
75629;BME280;64213;46.452;16.994;2023-06-24T09:47:55;100300.09;;;27.40;51.30
75629;BME280;64213;46.452;16.994;2023-06-24T09:51:01;100306.16;;;27.07;54.05
75629;BME280;64213;46.452;16.994;2023-06-24T09:54:07;100298.88;;;26.30;54.60
75629;BME280;64213;46.452;16.994;2023-06-24T09:57:10;100293.91;;;25.76;54.04
75629;BME280;64213;46.452;16.994;2023-06-24T10:00:14;100295.59;;;26.13;53.82
75629;BME280;64213;46.452;16.994;2023-06-24T10:03:18;100293.12;;;27.24;50.38
75629;BME280;64213;46.452;16.994;2023-06-24T10:06:21;100290.38;;;28.67;47.53
75629;BME280;64213;46.452;16.994;2023-06-24T10:09:23;100281.47;;;27.30;50.06
75629;BME280;64213;46.452;16.994;2023-06-24T10:12:25;100280.87;;;27.00;50.31
75629;BME280;64213;46.452;16.994;2023-06-24T10:15:29;100282.28;;;27.31;50.39
75629;BME280;64213;46.452;16.994;2023-06-24T10:18:36;100273.66;;;26.86;50.63
75629;BME280;64213;46.452;16.994;2023-06-24T10:21:52;100283.28;;;25.60;53.61
75629;BME280;64213;46.452;16.994;2023-06-24T10:24:54;100284.87;;;25.54;53.96
75629;BME280;64213;46.452;16.994;2023-06-24T10:27:58;100286.03;;;25.45;54.59
75629;BME280;64213;46.452;16.994;2023-06-24T10:31:00;100279.31;;;25.11;55.75
75629;BME280;64213;46.452;16.994;2023-06-24T10:37:32;100275.03;;;25.17;56.20
75629;BME280;64213;46.452;16.994;2023-06-24T10:40:43;100264.00;;;26.27;53.00
75629;BME280;64213;46.452;16.994;2023-06-24T10:43:45;100259.97;;;25.44;54.16
75629;BME280;64213;46.452;16.994;2023-06-24T10:46:54;100261.25;;;25.48;54.09
75629;BME280;64213;46.452;16.994;2023-06-24T10:49:56;100266.03;;;27.37;50.07
75629;BME280;64213;46.452;16.994;2023-06-24T10:52:59;100266.25;;;25.81;51.10
75629;BME280;64213;46.452;16.994;2023-06-24T10:56:03;100279.06;;;25.21;52.90
75629;BME280;64213;46.452;16.994;2023-06-24T10:59:05;100271.63;;;25.00;53.50
75629;BME280;64213;46.452;16.994;2023-06-24T11:02:08;100268.94;;;25.81;51.86
75629;BME280;64213;46.452;16.994;2023-06-24T11:05:14;100267.84;;;25.24;53.50
75629;BME280;64213;46.452;16.994;2023-06-24T11:08:16;100264.19;;;25.17;53.81
75629;BME280;64213;46.452;16.994;2023-06-24T11:11:19;100266.75;;;25.91;50.99
75629;BME280;64213;46.452;16.994;2023-06-24T11:14:23;100273.47;;;27.16;47.16
75629;BME280;64213;46.452;16.994;2023-06-24T11:17:26;100273.47;;;27.16;46.16
75629;BME280;64213;46.452;16.994;2023-06-24T11:20:28;100261.91;;;27.48;44.83
75629;BME280;64213;46.452;16.994;2023-06-24T11:23:31;100270.50;;;28.66;42.63
75629;BME280;64213;46.452;16.994;2023-06-24T11:26:35;100260.81;;;28.04;43.60
75629;BME280;64213;46.452;16.994;2023-06-24T11:29:38;100251.63;;;28.38;42.74
75629;BME280;64213;46.452;16.994;2023-06-24T11:32:42;100259.16;;;28.89;42.44
75629;BME280;64213;46.452;16.994;2023-06-24T11:35:44;100257.44;;;29.15;41.65
75629;BME280;64213;46.452;16.994;2023-06-24T11:38:47;100254.56;;;28.70;42.13
75629;BME280;64213;46.452;16.994;2023-06-24T11:41:49;100248.50;;;28.15;43.42
75629;BME280;64213;46.452;16.994;2023-06-24T11:44:52;100259.12;;;27.00;46.23
75629;BME280;64213;46.452;16.994;2023-06-24T11:48:01;100254.72;;;26.15;48.64
75629;BME280;64213;46.452;16.994;2023-06-24T11:51:12;100272.41;;;25.74;49.75
75629;BME280;64213;46.452;16.994;2023-06-24T11:54:17;100258.78;;;25.17;51.22
75629;BME280;64213;46.452;16.994;2023-06-24T11:57:19;100259.78;;;25.01;52.20
75629;BME280;64213;46.452;16.994;2023-06-24T12:00:22;100260.50;;;26.55;48.45
75629;BME280;64213;46.452;16.994;2023-06-24T12:03:28;100256.03;;;26.47;48.43
75629;BME280;64213;46.452;16.994;2023-06-24T12:06:31;100254.75;;;26.43;48.40
75629;BME280;64213;46.452;16.994;2023-06-24T12:09:33;100269.31;;;27.20;46.85
75629;BME280;64213;46.452;16.994;2023-06-24T12:12:35;100272.22;;;27.25;46.54
75629;BME280;64213;46.452;16.994;2023-06-24T12:15:37;100261.75;;;26.09;48.89
75629;BME280;64213;46.452;16.994;2023-06-24T12:18:39;100251.22;;;25.63;50.18
75629;BME280;64213;46.452;16.994;2023-06-24T12:21:41;100260.97;;;25.43;51.20
75629;BME280;64213;46.452;16.994;2023-06-24T12:24:44;100247.94;;;25.32;51.99
75629;BME280;64213;46.452;16.994;2023-06-24T12:27:46;100261.09;;;25.35;51.85
75629;BME280;64213;46.452;16.994;2023-06-24T12:30:48;100249.06;;;26.59;49.15
75629;BME280;64213;46.452;16.994;2023-06-24T12:33:51;100244.56;;;26.24;49.64
75629;BME280;64213;46.452;16.994;2023-06-24T12:36:54;100245.28;;;25.53;51.19
75629;BME280;64213;46.452;16.994;2023-06-24T12:39:56;100244.19;;;26.05;50.63
75629;BME280;64213;46.452;16.994;2023-06-24T12:42:58;100240.31;;;25.57;51.63
75629;BME280;64213;46.452;16.994;2023-06-24T12:46:01;100239.44;;;25.20;52.45
75629;BME280;64213;46.452;16.994;2023-06-24T12:49:03;100238.16;;;24.86;53.36
75629;BME280;64213;46.452;16.994;2023-06-24T12:52:06;100238.66;;;24.52;53.98
75629;BME280;64213;46.452;16.994;2023-06-24T12:55:08;100224.69;;;24.93;53.26
75629;BME280;64213;46.452;16.994;2023-06-24T12:58:10;100214.25;;;24.75;53.19
75629;BME280;64213;46.452;16.994;2023-06-24T13:01:12;100239.00;;;25.16;52.55
75629;BME280;64213;46.452;16.994;2023-06-24T13:04:17;100224.03;;;25.20;51.17
75629;BME280;64213;46.452;16.994;2023-06-24T13:07:21;100228.72;;;24.97;51.85
75629;BME280;64213;46.452;16.994;2023-06-24T13:10:24;100233.34;;;25.47;50.28
75629;BME280;64213;46.452;16.994;2023-06-24T13:13:26;100238.66;;;25.92;49.44
75629;BME280;64213;46.452;16.994;2023-06-24T13:16:28;100240.06;;;25.88;49.73
75629;BME280;64213;46.452;16.994;2023-06-24T13:19:30;100256.59;;;25.42;51.40
75629;BME280;64213;46.452;16.994;2023-06-24T13:22:34;100251.91;;;25.50;50.82
75629;BME280;64213;46.452;16.994;2023-06-24T13:25:36;100249.81;;;25.67;50.51
75629;BME280;64213;46.452;16.994;2023-06-24T13:28:38;100258.47;;;25.26;51.25
75629;BME280;64213;46.452;16.994;2023-06-24T13:31:41;100249.16;;;24.99;52.45
75629;BME280;64213;46.452;16.994;2023-06-24T13:34:43;100252.62;;;25.08;51.53
75629;BME280;64213;46.452;16.994;2023-06-24T13:37:45;100249.00;;;25.52;50.94
75629;BME280;64213;46.452;16.994;2023-06-24T13:40:47;100256.44;;;24.99;51.91
75629;BME280;64213;46.452;16.994;2023-06-24T13:43:49;100248.16;;;25.15;51.70
75629;BME280;64213;46.452;16.994;2023-06-24T13:46:52;100249.59;;;25.33;51.14
75629;BME280;64213;46.452;16.994;2023-06-24T13:49:55;100246.06;;;26.05;49.24
75629;BME280;64213;46.452;16.994;2023-06-24T13:52:57;100258.19;;;25.87;49.91
75629;BME280;64213;46.452;16.994;2023-06-24T13:55:59;100247.37;;;26.58;48.44
75629;BME280;64213;46.452;16.994;2023-06-24T13:59:02;100254.37;;;26.74;47.16
75629;BME280;64213;46.452;16.994;2023-06-24T14:02:04;100258.84;;;27.17;45.77
75629;BME280;64213;46.452;16.994;2023-06-24T14:05:07;100240.75;;;27.44;45.46
75629;BME280;64213;46.452;16.994;2023-06-24T14:08:10;100247.84;;;26.97;47.17
75629;BME280;64213;46.452;16.994;2023-06-24T14:11:12;100242.22;;;27.05;47.09
75629;BME280;64213;46.452;16.994;2023-06-24T14:14:14;100242.16;;;26.35;47.98
75629;BME280;64213;46.452;16.994;2023-06-24T14:17:16;100240.06;;;25.88;48.76
75629;BME280;64213;46.452;16.994;2023-06-24T14:20:19;100239.91;;;25.23;50.05
75629;BME280;64213;46.452;16.994;2023-06-24T14:23:21;100232.03;;;25.80;49.18
75629;BME280;64213;46.452;16.994;2023-06-24T14:26:23;100226.09;;;26.12;48.79
75629;BME280;64213;46.452;16.994;2023-06-24T14:29:28;100232.75;;;25.52;49.30
75629;BME280;64213;46.452;16.994;2023-06-24T14:32:30;100236.16;;;24.95;50.67
75629;BME280;64213;46.452;16.994;2023-06-24T14:35:33;100233.66;;;25.08;50.53
75629;BME280;64213;46.452;16.994;2023-06-24T14:38:35;100226.56;;;25.22;51.07
75629;BME280;64213;46.452;16.994;2023-06-24T14:41:37;100226.56;;;25.58;49.27
75629;BME280;64213;46.452;16.994;2023-06-24T14:44:39;100219.94;;;25.24;49.75
75629;BME280;64213;46.452;16.994;2023-06-24T14:47:41;100222.59;;;25.39;49.95
75629;BME280;64213;46.452;16.994;2023-06-24T14:50:43;100225.44;;;24.87;51.21
75629;BME280;64213;46.452;16.994;2023-06-24T14:53:45;100218.91;;;24.28;52.60
75629;BME280;64213;46.452;16.994;2023-06-24T14:56:48;100228.31;;;23.95;53.46
75629;BME280;64213;46.452;16.994;2023-06-24T14:59:50;100208.94;;;23.60;54.37
75629;BME280;64213;46.452;16.994;2023-06-24T15:02:52;100217.81;;;23.46;55.17
75629;BME280;64213;46.452;16.994;2023-06-24T15:05:54;100224.41;;;23.74;54.90
75629;BME280;64213;46.452;16.994;2023-06-24T15:08:56;100214.25;;;24.37;53.69
75629;BME280;64213;46.452;16.994;2023-06-24T15:11:58;100219.16;;;24.42;53.33
75629;BME280;64213;46.452;16.994;2023-06-24T15:15:00;100226.84;;;24.68;52.79
75629;BME280;64213;46.452;16.994;2023-06-24T15:18:02;100214.50;;;24.65;52.47
75629;BME280;64213;46.452;16.994;2023-06-24T15:21:05;100209.66;;;24.75;52.47
75629;BME280;64213;46.452;16.994;2023-06-24T15:24:07;100214.44;;;24.73;52.79
75629;BME280;64213;46.452;16.994;2023-06-24T15:27:09;100226.44;;;24.41;53.40
75629;BME280;64213;46.452;16.994;2023-06-24T15:30:11;100231.31;;;24.00;53.73
75629;BME280;64213;46.452;16.994;2023-06-24T15:33:14;100217.88;;;23.69;54.94
75629;BME280;64213;46.452;16.994;2023-06-24T15:36:16;100217.22;;;23.58;55.91
75629;BME280;64213;46.452;16.994;2023-06-24T15:39:18;100208.16;;;23.20;56.28
75629;BME280;64213;46.452;16.994;2023-06-24T15:42:20;100213.28;;;22.90;56.91
75629;BME280;64213;46.452;16.994;2023-06-24T15:45:22;100218.38;;;22.93;57.22
75629;BME280;64213;46.452;16.994;2023-06-24T15:48:24;100223.81;;;22.69;57.73
75629;BME280;64213;46.452;16.994;2023-06-24T15:51:26;100213.63;;;22.87;57.19
75629;BME280;64213;46.452;16.994;2023-06-24T15:54:28;100213.03;;;23.16;56.73
75629;BME280;64213;46.452;16.994;2023-06-24T15:57:31;100211.84;;;23.27;56.59